Terminal Aerodrome Forecast
Issued by NWS Sterling, VA

Home | Current Version | Previous Version | Text Only | Print | Product List | Glossary On
Versions: 1 2 3 4 5 6 7 8 9 10 11 12 13 14 15 16 17 18 19 20 21 22 23
762
FTUS41 KLWX 061135
TAFDCA
TAF
KDCA 061135Z 0612/0712 36009KT 5SM -RA BR OVC025
     FM061400 01008KT 4SM RA BR OVC015
     FM062200 31005KT 5SM -SHRA BR OVC015
     FM070300 VRB04KT 6SM BR OVC008=

USA.gov is the U.S. government's official web portal to all federal, state and local government web resources and services.